Allenton, Wisconsin
Current Conditions -  °F | °C
As of 10:10 PM on Wednesday 28 Jan 2015 (Local Time) from KETB Reporting Station
Overcast Overcast  
Wind Chill: 25°   Ceiling: 10000
Heat Index: 32°   Visibility: 10mi
Dew Point: 21°   Wind: 8mph
Humidity: 64%   Direction: 150°SSE
Pressure: 29.84"   Gusts: 17mph
Location:  43.42°N, 88.34°W
Report Text: KETB 290410Z AUTO 15007G15KT 10SM OVC100 00/M06 A2984 RMK AO2
Loading
Personal Weather Stations






























Interactive Weather Map New forecast layout! Learn more

10-Day Weather Forecast

Advertisements
Track Severe Weather on mobile